Time;durP1;ratioP1;P1;durP2;ratioP2;P2;SDS_P1;SDS_P2;PMS_P1;PMS_P2;Temp;Humidity;BMP_temperature;BMP_pressure;BME280_temperature;BME280_humidity;BME280_pressure;Samples;Min_cycle;Max_cycle;Signal;HPM_P1;HPM_P2
2023/09/02 00:01:33;;;;;;;11.20;3.50;;;;;;;;;;5031859;28;20128;-72
2023/09/02 00:04:04;;;;;;;7.20;3.72;;;;;;;;;;5032780;28;20053;-72
2023/09/02 00:06:31;;;;;;;7.43;3.55;;;;;;;;;;5032532;28;20049;-71
2023/09/02 00:08:57;;;;;;;7.28;3.75;;;;;;;;;;5031948;28;20052;-72
2023/09/02 00:11:25;;;;;;;11.70;4.13;;;;;;;;;;5031760;28;20559;-73
2023/09/02 00:13:51;;;;;;;11.88;3.50;;;;;;;;;;5032911;28;20107;-72
2023/09/02 00:16:19;;;;;;;7.22;3.70;;;;;;;;;;5032172;28;20045;-72
2023/09/02 00:18:46;;;;;;;13.93;3.50;;;;;;;;;;5032640;28;20156;-72
2023/09/02 00:21:12;;;;;;;9.23;3.30;;;;;;;;;;5031819;28;20045;-73
2023/09/02 00:23:43;;;;;;;7.70;3.58;;;;;;;;;;5032454;28;20119;-72
2023/09/02 00:26:10;;;;;;;4.95;3.42;;;;;;;;;;5032339;28;20139;-71
2023/09/02 00:28:36;;;;;;;7.45;3.72;;;;;;;;;;5032917;28;20049;-72
2023/09/02 00:31:03;;;;;;;8.18;3.67;;;;;;;;;;5032105;28;20052;-72
2023/09/02 00:33:31;;;;;;;8.13;3.15;;;;;;;;;;5032496;28;20136;-72
2023/09/02 00:35:57;;;;;;;7.85;4.20;;;;;;;;;;5032646;28;20486;-71
2023/09/02 00:38:24;;;;;;;6.50;3.65;;;;;;;;;;5032127;28;20069;-72
2023/09/02 00:40:57;;;;;;;8.90;4.18;;;;;;;;;;5032292;28;20049;-71
2023/09/02 00:43:24;;;;;;;11.57;3.58;;;;;;;;;;5032028;28;20092;-72
2023/09/02 00:45:51;;;;;;;9.23;3.85;;;;;;;;;;5032576;28;20136;-71
2023/09/02 00:48:17;;;;;;;9.38;4.50;;;;;;;;;;5032397;28;20487;-71
2023/09/02 00:50:45;;;;;;;7.00;3.90;;;;;;;;;;5032196;28;20045;-71
2023/09/02 00:53:12;;;;;;;8.45;4.22;;;;;;;;;;5032044;28;20051;-71
2023/09/02 00:55:39;;;;;;;11.65;3.67;;;;;;;;;;5031977;28;20115;-72
2023/09/02 00:58:06;;;;;;;5.70;4.20;;;;;;;;;;5031495;28;20057;-71
2023/09/02 01:00:33;;;;;;;7.20;3.90;;;;;;;;;;5032067;28;20056;-71
2023/09/02 01:02:59;;;;;;;9.55;4.55;;;;;;;;;;5032128;28;20407;-72
2023/09/02 01:05:26;;;;;;;8.80;4.05;;;;;;;;;;5032449;28;20056;-72
2023/09/02 01:07:55;;;;;;;7.72;4.07;;;;;;;;;;5032317;28;20076;-72
2023/09/02 01:10:22;;;;;;;7.35;4.15;;;;;;;;;;5031466;28;20045;-71
2023/09/02 01:12:49;;;;;;;8.55;3.88;;;;;;;;;;5032008;28;20081;-71
2023/09/02 01:15:16;;;;;;;6.15;3.72;;;;;;;;;;5031932;28;20447;-72
2023/09/02 01:17:43;;;;;;;5.55;3.60;;;;;;;;;;5031833;28;20057;-71
2023/09/02 01:20:12;;;;;;;4.50;3.42;;;;;;;;;;5031315;28;20049;-71
2023/09/02 01:22:57;;;;;;;8.40;3.70;;;;;;;;;;5031675;28;20053;-71
2023/09/02 01:25:53;;;;;;;5.25;3.50;;;;;;;;;;5031627;28;20045;-71
2023/09/02 01:28:28;;;;;;;4.90;3.58;;;;;;;;;;5031625;28;20574;-72
2023/09/02 01:30:55;;;;;;;7.15;3.53;;;;;;;;;;5031248;28;20517;-71
2023/09/02 01:33:26;;;;;;;4.68;2.97;;;;;;;;;;5031388;28;20415;-72
2023/09/02 01:35:53;;;;;;;6.10;3.60;;;;;;;;;;5031613;28;20665;-71
2023/09/02 01:38:24;;;;;;;4.30;2.97;;;;;;;;;;5031907;28;20179;-71
2023/09/02 01:40:54;;;;;;;4.50;2.85;;;;;;;;;;5030791;28;20065;-72
2023/09/02 01:43:23;;;;;;;3.47;2.60;;;;;;;;;;5031272;28;20051;-71
2023/09/02 01:45:51;;;;;;;3.47;2.65;;;;;;;;;;5031333;28;20045;-72
2023/09/02 01:48:19;;;;;;;2.83;2.20;;;;;;;;;;5031257;28;20050;-72
2023/09/02 01:50:47;;;;;;;2.28;2.08;;;;;;;;;;5030149;28;20083;-72
2023/09/02 01:53:13;;;;;;;2.80;2.35;;;;;;;;;;5030949;28;20042;-72
2023/09/02 01:55:46;;;;;;;4.47;2.17;;;;;;;;;;5031022;28;20049;-72
2023/09/02 01:58:13;;;;;;;2.92;2.40;;;;;;;;;;5031161;28;20046;-72
2023/09/02 02:00:40;;;;;;;2.33;2.05;;;;;;;;;;5030045;28;20054;-72
2023/09/02 02:03:14;;;;;;;2.40;2.20;;;;;;;;;;5030981;28;20049;-72
2023/09/02 02:05:48;;;;;;;3.90;2.33;;;;;;;;;;5030193;28;20045;-72
2023/09/02 02:08:20;;;;;;;2.70;2.35;;;;;;;;;;5030608;28;20045;-72
2023/09/02 02:10:49;;;;;;;3.58;2.10;;;;;;;;;;5029687;28;20152;-73
2023/09/02 02:13:15;;;;;;;2.38;2.17;;;;;;;;;;5030953;28;20049;-72
2023/09/02 02:15:43;;;;;;;3.38;1.90;;;;;;;;;;5030150;28;20049;-72
2023/09/02 02:18:10;;;;;;;2.20;1.70;;;;;;;;;;5030237;28;20136;-72
2023/09/02 02:20:45;;;;;;;2.30;1.63;;;;;;;;;;5029625;28;20057;-72
2023/09/02 02:23:12;;;;;;;1.80;1.45;;;;;;;;;;5030379;28;20051;-72
2023/09/02 02:25:39;;;;;;;1.73;1.63;;;;;;;;;;5029802;28;20042;-72
2023/09/02 02:28:06;;;;;;;1.80;1.52;;;;;;;;;;5030472;28;20065;-72
2023/09/02 02:30:33;;;;;;;1.70;1.60;;;;;;;;;;5029922;28;20136;-72
2023/09/02 02:33:01;;;;;;;1.70;1.50;;;;;;;;;;5035893;28;20071;-72
2023/09/02 02:35:31;;;;;;;1.83;1.70;;;;;;;;;;5036736;28;20132;-72
2023/09/02 02:37:59;;;;;;;1.67;1.55;;;;;;;;;;5036362;28;20052;-72
2023/09/02 02:40:25;;;;;;;2.67;1.77;;;;;;;;;;5036470;28;20057;-72
2023/09/02 02:42:52;;;;;;;2.35;1.60;;;;;;;;;;5036390;28;20045;-72
2023/09/02 02:45:19;;;;;;;3.55;1.80;;;;;;;;;;5037253;28;20418;-70
2023/09/02 02:47:46;;;;;;;3.00;1.70;;;;;;;;;;5036599;28;20491;-70
2023/09/02 02:50:14;;;;;;;2.85;2.42;;;;;;;;;;5036496;28;20053;-70
2023/09/02 02:52:40;;;;;;;3.90;2.80;;;;;;;;;;5036653;28;20063;-71
2023/09/02 02:55:08;;;;;;;3.65;2.90;;;;;;;;;;5036748;28;20041;-71
2023/09/02 02:57:34;;;;;;;3.17;2.67;;;;;;;;;;5036385;28;20567;-70
2023/09/02 03:00:01;;;;;;;2.75;2.45;;;;;;;;;;5036629;28;20171;-71
2023/09/02 03:02:28;;;;;;;3.38;2.30;;;;;;;;;;5036405;28;20077;-70
2023/09/02 03:04:54;;;;;;;3.20;2.25;;;;;;;;;;5037059;28;20260;-70
2023/09/02 03:07:22;;;;;;;4.22;2.53;;;;;;;;;;5036363;28;20052;-71
2023/09/02 03:09:49;;;;;;;2.92;2.50;;;;;;;;;;5035975;28;20047;-70
2023/09/02 03:12:15;;;;;;;2.97;2.63;;;;;;;;;;5036272;28;20045;-71
2023/09/02 03:14:42;;;;;;;5.50;2.83;;;;;;;;;;5036041;28;20049;-71
2023/09/02 03:17:09;;;;;;;2.47;2.28;;;;;;;;;;5036409;28;20418;-71
2023/09/02 03:19:35;;;;;;;3.65;1.90;;;;;;;;;;5036009;28;20045;-72
2023/09/02 03:22:02;;;;;;;2.00;1.77;;;;;;;;;;5036385;28;20136;-71
2023/09/02 03:24:30;;;;;;;2.80;2.08;;;;;;;;;;5036070;28;20408;-73
2023/09/02 03:26:57;;;;;;;2.22;2.03;;;;;;;;;;5036215;28;20049;-71
2023/09/02 03:29:23;;;;;;;5.63;2.65;;;;;;;;;;5036033;28;20109;-73
2023/09/02 03:31:50;;;;;;;3.58;2.42;;;;;;;;;;5035850;28;20046;-70
2023/09/02 03:34:16;;;;;;;3.28;2.65;;;;;;;;;;5035667;28;20071;-73
2023/09/02 03:36:43;;;;;;;3.25;2.47;;;;;;;;;;5036082;28;20041;-71
2023/09/02 03:39:09;;;;;;;3.25;2.53;;;;;;;;;;5035917;28;20051;-73
2023/09/02 03:41:38;;;;;;;5.63;2.80;;;;;;;;;;5035774;28;20056;-71
2023/09/02 03:44:05;;;;;;;3.33;2.70;;;;;;;;;;5032275;28;20045;-70
2023/09/02 03:46:31;;;;;;;3.95;2.90;;;;;;;;;;5033023;28;20059;-72
2023/09/02 03:48:58;;;;;;;4.07;3.00;;;;;;;;;;5032394;28;20094;-72
2023/09/02 03:51:24;;;;;;;4.65;2.95;;;;;;;;;;5032570;28;20045;-73
2023/09/02 03:53:51;;;;;;;3.63;2.92;;;;;;;;;;5033098;28;20052;-72
2023/09/02 03:56:18;;;;;;;3.80;2.70;;;;;;;;;;5032612;28;20132;-70
2023/09/02 03:58:45;;;;;;;5.78;2.60;;;;;;;;;;5032990;28;20141;-71
2023/09/02 04:01:12;;;;;;;3.30;2.67;;;;;;;;;;5032107;28;20171;-70
2023/09/02 04:03:39;;;;;;;2.90;2.38;;;;;;;;;;5032775;28;20054;-71
2023/09/02 04:06:06;;;;;;;6.00;2.45;;;;;;;;;;5032719;28;20128;-71
2023/09/02 04:08:34;;;;;;;2.40;2.20;;;;;;;;;;5033133;28;20055;-71
2023/09/02 04:11:02;;;;;;;3.03;1.95;;;;;;;;;;5032170;28;20053;-71
2023/09/02 04:13:29;;;;;;;2.97;2.13;;;;;;;;;;5032768;28;20064;-71
2023/09/02 04:15:57;;;;;;;3.70;2.20;;;;;;;;;;5032283;28;20414;-71
2023/09/02 04:18:24;;;;;;;3.65;2.33;;;;;;;;;;5032444;28;20084;-71
2023/09/02 04:20:51;;;;;;;4.75;2.55;;;;;;;;;;5031726;28;20075;-71
2023/09/02 04:23:18;;;;;;;4.45;2.10;;;;;;;;;;5032441;28;20045;-71
2023/09/02 04:28:24;;;;;;;2.38;2.10;;;;;;;;;;5030881;28;20061;-72
2023/09/02 04:30:51;;;;;;;2.20;1.73;;;;;;;;;;5031606;28;20191;-71
2023/09/02 04:33:19;;;;;;;2.30;2.10;;;;;;;;;;5032627;28;20049;-72
2023/09/02 04:35:46;;;;;;;2.67;2.40;;;;;;;;;;5032419;28;20045;-72
2023/09/02 04:38:14;;;;;;;2.88;2.50;;;;;;;;;;5032319;28;20080;-72
2023/09/02 04:40:42;;;;;;;5.60;2.67;;;;;;;;;;5031816;28;20053;-71
2023/09/02 04:43:11;;;;;;;3.35;2.17;;;;;;;;;;5031871;28;20498;-72
2023/09/02 04:45:39;;;;;;;3.53;2.30;;;;;;;;;;5032384;28;20495;-71
2023/09/02 04:48:06;;;;;;;2.72;2.30;;;;;;;;;;5031909;28;20136;-72
2023/09/02 04:50:35;;;;;;;3.28;1.77;;;;;;;;;;5032051;28;20049;-71
2023/09/02 04:53:03;;;;;;;2.20;1.90;;;;;;;;;;5031773;28;20504;-71
2023/09/02 04:55:29;;;;;;;2.15;1.70;;;;;;;;;;5031929;28;20050;-71
2023/09/02 04:57:57;;;;;;;2.45;2.10;;;;;;;;;;5031956;28;20045;-71
2023/09/02 05:00:25;;;;;;;3.17;2.22;;;;;;;;;;5031651;28;20041;-71
2023/09/02 05:02:52;;;;;;;2.47;1.98;;;;;;;;;;5031653;28;20053;-71
2023/09/02 05:05:20;;;;;;;2.40;1.90;;;;;;;;;;5031955;28;20060;-71
2023/09/02 05:07:49;;;;;;;2.30;1.80;;;;;;;;;;5031454;28;20042;-71
2023/09/02 05:10:16;;;;;;;3.28;1.80;;;;;;;;;;5031374;28;20076;-71
2023/09/02 05:12:43;;;;;;;2.67;1.90;;;;;;;;;;5031530;28;20132;-72
2023/09/02 05:15:10;;;;;;;1.95;1.75;;;;;;;;;;5031721;28;20077;-71
2023/09/02 05:17:37;;;;;;;1.70;1.48;;;;;;;;;;5031421;28;20049;-71
2023/09/02 05:20:05;;;;;;;1.75;1.50;;;;;;;;;;5031120;28;20546;-71
2023/09/02 05:22:32;;;;;;;2.53;2.10;;;;;;;;;;5030860;28;20507;-71
2023/09/02 05:25:01;;;;;;;2.95;1.70;;;;;;;;;;5031390;28;20041;-71
2023/09/02 05:27:28;;;;;;;1.70;1.60;;;;;;;;;;5031250;28;20049;-71
2023/09/02 05:29:54;;;;;;;1.50;1.40;;;;;;;;;;5030851;28;20559;-71
2023/09/02 05:32:21;;;;;;;2.60;1.55;;;;;;;;;;5031431;28;20140;-71
2023/09/02 05:34:48;;;;;;;2.22;1.45;;;;;;;;;;5031065;28;20132;-71
2023/09/02 05:37:14;;;;;;;3.13;1.42;;;;;;;;;;5031812;28;20334;-71
2023/09/02 05:39:41;;;;;;;2.15;1.30;;;;;;;;;;5030862;28;20472;-70
2023/09/02 05:42:09;;;;;;;3.35;1.48;;;;;;;;;;5031244;28;20055;-71
2023/09/02 05:44:36;;;;;;;2.05;1.25;;;;;;;;;;5030953;28;20048;-70
2023/09/02 05:47:03;;;;;;;1.52;0.93;;;;;;;;;;5030980;28;20513;-70
2023/09/02 05:49:29;;;;;;;1.30;1.20;;;;;;;;;;5030210;28;20054;-72
2023/09/02 05:51:56;;;;;;;1.27;1.10;;;;;;;;;;5031257;28;20487;-70
2023/09/02 05:54:23;;;;;;;1.55;1.45;;;;;;;;;;5030828;28;20458;-70
2023/09/02 05:56:49;;;;;;;1.40;0.98;;;;;;;;;;5031089;28;20487;-69
2023/09/02 05:59:17;;;;;;;1.85;1.40;;;;;;;;;;5030853;28;20128;-70
2023/09/02 06:01:46;;;;;;;1.92;1.10;;;;;;;;;;5030503;28;20132;-70
2023/09/02 06:04:12;;;;;;;1.60;1.40;;;;;;;;;;5030335;28;20042;-70
2023/09/02 06:06:39;;;;;;;1.20;1.10;;;;;;;;;;5030318;28;20056;-69
2023/09/02 06:09:05;;;;;;;1.40;1.25;;;;;;;;;;5030582;28;20145;-70
2023/09/02 06:11:33;;;;;;;2.65;1.67;;;;;;;;;;5029873;28;20045;-69
2023/09/02 06:13:59;;;;;;;1.70;1.60;;;;;;;;;;5030651;28;20609;-70
2023/09/02 06:16:27;;;;;;;1.50;1.40;;;;;;;;;;5030018;28;20052;-70
2023/09/02 06:18:54;;;;;;;1.70;1.60;;;;;;;;;;5030160;28;20128;-70
2023/09/02 06:21:20;;;;;;;1.65;1.55;;;;;;;;;;5029677;28;20046;-70
2023/09/02 06:23:47;;;;;;;1.30;1.20;;;;;;;;;;5030951;28;20081;-70
2023/09/02 06:26:14;;;;;;;2.15;1.40;;;;;;;;;;5030302;28;20084;-69
2023/09/02 06:28:41;;;;;;;1.92;1.50;;;;;;;;;;5030543;28;20335;-70
2023/09/02 06:31:09;;;;;;;1.33;1.23;;;;;;;;;;5029742;28;20137;-70
2023/09/02 06:33:37;;;;;;;2.72;1.40;;;;;;;;;;5030660;28;20050;-70
2023/09/02 06:36:10;;;;;;;1.73;1.52;;;;;;;;;;5029902;28;20132;-69
2023/09/02 06:38:36;;;;;;;4.00;2.10;;;;;;;;;;5030527;28;20046;-69
2023/09/02 06:41:09;;;;;;;1.90;1.70;;;;;;;;;;5029440;28;20132;-71
2023/09/02 06:43:36;;;;;;;1.60;1.50;;;;;;;;;;5030549;28;20562;-69
2023/09/02 06:46:12;;;;;;;1.45;1.35;;;;;;;;;;5029544;28;20092;-70
2023/09/02 06:48:40;;;;;;;2.38;1.20;;;;;;;;;;5030370;28;20537;-71
2023/09/02 06:51:06;;;;;;;1.48;1.38;;;;;;;;;;5029741;28;20045;-69
2023/09/02 06:53:33;;;;;;;1.48;1.38;;;;;;;;;;5030245;28;20052;-69
2023/09/02 06:55:59;;;;;;;1.98;1.60;;;;;;;;;;5030167;28;20045;-72
2023/09/02 06:58:26;;;;;;;1.70;1.50;;;;;;;;;;5029874;28;20045;-69
2023/09/02 07:00:53;;;;;;;1.42;1.33;;;;;;;;;;5029683;28;20125;-70
2023/09/02 07:03:19;;;;;;;1.98;1.40;;;;;;;;;;5030117;28;20474;-69
2023/09/02 07:05:47;;;;;;;1.75;1.60;;;;;;;;;;5030387;28;20041;-70
2023/09/02 07:08:14;;;;;;;1.42;1.20;;;;;;;;;;5029812;28;20045;-70
2023/09/02 07:10:41;;;;;;;2.38;1.25;;;;;;;;;;5029446;28;20045;-71
2023/09/02 07:13:08;;;;;;;1.40;1.30;;;;;;;;;;5029695;28;20578;-71
2023/09/02 07:15:34;;;;;;;1.73;1.42;;;;;;;;;;5030532;28;20052;-70
2023/09/02 07:18:02;;;;;;;1.60;0.85;;;;;;;;;;5031155;28;20096;-69
2023/09/02 07:20:28;;;;;;;2.38;1.58;;;;;;;;;;5033296;28;20573;-73
2023/09/02 07:22:56;;;;;;;2.00;1.30;;;;;;;;;;5033276;28;20481;-70
2023/09/02 07:25:23;;;;;;;1.38;1.20;;;;;;;;;;5033367;28;20542;-69
2023/09/02 07:27:49;;;;;;;2.38;1.60;;;;;;;;;;5033101;28;20140;-70
2023/09/02 07:30:16;;;;;;;1.90;1.38;;;;;;;;;;5033049;28;20052;-70
2023/09/02 07:32:43;;;;;;;2.15;1.55;;;;;;;;;;5033355;28;20376;-70
2023/09/02 07:35:10;;;;;;;4.07;1.70;;;;;;;;;;5033702;28;20131;-69
2023/09/02 07:37:37;;;;;;;2.00;1.80;;;;;;;;;;5033550;28;20104;-73
2023/09/02 07:40:06;;;;;;;1.55;1.45;;;;;;;;;;5032201;28;20045;-71
2023/09/02 07:42:33;;;;;;;3.40;1.40;;;;;;;;;;5033298;28;20045;-71
2023/09/02 07:44:59;;;;;;;16.25;3.70;;;;;;;;;;5032836;28;20053;-73
2023/09/02 07:47:26;;;;;;;1.70;1.60;;;;;;;;;;5033231;28;20046;-72
2023/09/02 07:49:54;;;;;;;2.22;1.73;;;;;;;;;;5032192;28;20135;-72
2023/09/02 07:52:20;;;;;;;1.88;1.52;;;;;;;;;;5032775;28;20155;-73
2023/09/02 07:54:47;;;;;;;25.05;4.25;;;;;;;;;;5032433;28;20525;-72
2023/09/02 07:57:15;;;;;;;3.10;1.75;;;;;;;;;;5033199;28;20049;-72
2023/09/02 07:59:41;;;;;;;1.70;1.60;;;;;;;;;;5032547;28;20055;-72
2023/09/02 08:02:08;;;;;;;1.80;1.70;;;;;;;;;;5033067;28;20132;-71
2023/09/02 08:04:34;;;;;;;4.65;1.90;;;;;;;;;;5032673;28;20518;-74
2023/09/02 08:07:01;;;;;;;2.92;1.83;;;;;;;;;;5032825;28;20128;-71
2023/09/02 08:09:28;;;;;;;4.57;2.10;;;;;;;;;;5032503;28;20132;-71
2023/09/02 08:11:54;;;;;;;1.88;1.50;;;;;;;;;;5032476;28;20075;-71
2023/09/02 08:14:22;;;;;;;1.85;1.50;;;;;;;;;;5032529;28;20056;-71
2023/09/02 08:16:49;;;;;;;1.83;1.60;;;;;;;;;;5032927;28;20534;-71
2023/09/02 08:19:16;;;;;;;1.95;1.48;;;;;;;;;;5032512;28;20050;-71
2023/09/02 08:21:42;;;;;;;2.75;1.60;;;;;;;;;;5031941;28;20055;-72
2023/09/02 08:24:09;;;;;;;2.17;1.98;;;;;;;;;;5032763;28;20064;-72
2023/09/02 08:26:35;;;;;;;2.38;2.05;;;;;;;;;;5032520;28;20132;-71
2023/09/02 08:29:02;;;;;;;4.90;1.80;;;;;;;;;;5032046;28;20125;-71
2023/09/02 08:31:30;;;;;;;2.05;1.67;;;;;;;;;;5032101;28;20049;-71
2023/09/02 08:33:57;;;;;;;3.75;2.10;;;;;;;;;;5032496;28;20137;-71
2023/09/02 08:36:24;;;;;;;3.47;1.95;;;;;;;;;;5031985;28;20487;-71
2023/09/02 08:38:51;;;;;;;1.90;1.70;;;;;;;;;;5032889;28;20442;-71
2023/09/02 08:41:25;;;;;;;2.30;2.10;;;;;;;;;;5031622;28;20050;-71
2023/09/02 08:43:54;;;;;;;1.95;1.83;;;;;;;;;;5032566;28;20510;-70
2023/09/02 08:46:22;;;;;;;3.53;1.70;;;;;;;;;;5031907;28;20041;-71
2023/09/02 08:48:50;;;;;;;2.20;1.70;;;;;;;;;;5031927;28;20048;-73
2023/09/02 08:51:17;;;;;;;1.70;1.50;;;;;;;;;;5031287;28;20480;-71
2023/09/02 08:53:45;;;;;;;2.28;1.70;;;;;;;;;;5032147;28;20096;-72
2023/09/02 08:56:12;;;;;;;1.63;1.50;;;;;;;;;;5031554;28;20475;-71
2023/09/02 08:58:40;;;;;;;1.70;1.60;;;;;;;;;;5031625;28;20133;-72
2023/09/02 09:01:08;;;;;;;1.85;1.70;;;;;;;;;;5031022;28;20087;-71
2023/09/02 09:03:35;;;;;;;2.50;1.60;;;;;;;;;;5031633;28;20138;-72
2023/09/02 09:06:09;;;;;;;2.20;1.90;;;;;;;;;;5031794;28;20128;-74
2023/09/02 09:08:36;;;;;;;1.80;1.70;;;;;;;;;;5031969;28;20080;-73
2023/09/02 09:11:05;;;;;;;3.75;1.88;;;;;;;;;;5031366;28;20566;-72
2023/09/02 09:13:33;;;;;;;1.90;1.80;;;;;;;;;;5031214;28;20578;-72
2023/09/02 09:16:00;;;;;;;1.88;1.77;;;;;;;;;;5031660;28;20092;-72
2023/09/02 09:18:27;;;;;;;1.95;1.85;;;;;;;;;;5031464;28;20045;-71
2023/09/02 09:20:55;;;;;;;2.55;1.85;;;;;;;;;;5031130;28;20042;-71
2023/09/02 09:23:23;;;;;;;2.30;1.95;;;;;;;;;;5031210;28;20049;-71
2023/09/02 09:25:52;;;;;;;1.65;1.55;;;;;;;;;;5031655;28;20131;-71
2023/09/02 09:28:19;;;;;;;1.77;1.40;;;;;;;;;;5030831;28;20048;-71
2023/09/02 09:30:47;;;;;;;1.85;1.65;;;;;;;;;;5031073;28;20120;-71
2023/09/02 09:33:13;;;;;;;1.30;1.20;;;;;;;;;;5031115;28;20049;-71
2023/09/02 09:35:40;;;;;;;2.00;1.40;;;;;;;;;;5031402;28;20037;-71
2023/09/02 09:38:07;;;;;;;2.58;1.50;;;;;;;;;;5030985;28;20052;-71
2023/09/02 09:40:38;;;;;;;1.98;1.63;;;;;;;;;;5030829;28;20463;-71
2023/09/02 09:43:16;;;;;;;1.75;1.42;;;;;;;;;;5030471;28;20081;-71
2023/09/02 09:45:50;;;;;;;2.35;1.02;;;;;;;;;;5031530;28;20549;-71
2023/09/02 09:48:16;;;;;;;1.98;1.25;;;;;;;;;;5029933;28;20423;-71
2023/09/02 09:50:43;;;;;;;1.50;1.40;;;;;;;;;;5030683;28;20073;-72
2023/09/02 09:53:10;;;;;;;1.20;1.10;;;;;;;;;;5031412;28;20106;-72
2023/09/02 09:55:38;;;;;;;2.83;1.13;;;;;;;;;;5030240;28;20048;-72
2023/09/02 09:58:05;;;;;;;2.45;1.17;;;;;;;;;;5030926;28;20045;-71
2023/09/02 10:00:32;;;;;;;2.03;1.05;;;;;;;;;;5030164;28;20053;-72
2023/09/02 10:03:00;;;;;;;2.15;1.00;;;;;;;;;;5030627;28;20049;-71
2023/09/02 10:05:28;;;;;;;1.95;1.17;;;;;;;;;;5030091;28;20056;-72
2023/09/02 10:07:59;;;;;;;2.90;1.00;;;;;;;;;;5030391;28;20136;-72
2023/09/02 10:10:31;;;;;;;1.75;1.15;;;;;;;;;;5029884;28;20056;-72
2023/09/02 10:12:59;;;;;;;1.25;1.15;;;;;;;;;;5030360;28;20049;-72
2023/09/02 10:15:27;;;;;;;1.23;1.13;;;;;;;;;;5030113;28;20045;-72
2023/09/02 10:17:58;;;;;;;2.40;1.38;;;;;;;;;;5030614;28;20045;-72
2023/09/02 10:20:27;;;;;;;1.52;1.10;;;;;;;;;;5029638;28;20503;-72
2023/09/02 10:22:54;;;;;;;1.10;0.90;;;;;;;;;;5030799;28;20502;-72
2023/09/02 10:25:25;;;;;;;1.15;1.05;;;;;;;;;;5030101;28;20056;-72
2023/09/02 10:28:03;;;;;;;4.50;1.25;;;;;;;;;;5042086;22;20052;-65
2023/09/02 10:30:35;;;;;;;1.52;0.95;;;;;;;;;;5028678;28;20132;-66
2023/09/02 10:33:12;;;;;;;1.08;0.98;;;;;;;;;;5029673;28;20289;-65
2023/09/02 10:35:44;;;;;;;1.25;0.90;;;;;;;;;;5029475;28;20495;-65
2023/09/02 10:38:16;;;;;;;1.60;1.20;;;;;;;;;;5029757;28;20132;-66
2023/09/02 10:40:47;;;;;;;3.33;1.20;;;;;;;;;;5028643;28;20477;-66
2023/09/02 10:43:16;;;;;;;4.55;1.40;;;;;;;;;;5029797;28;20509;-66
2023/09/02 10:45:44;;;;;;;1.20;1.10;;;;;;;;;;5029284;28;20096;-65
2023/09/02 10:48:11;;;;;;;1.95;0.88;;;;;;;;;;5029712;28;20045;-66
2023/09/02 10:50:39;;;;;;;0.98;0.88;;;;;;;;;;5029418;28;20550;-66
2023/09/02 10:53:05;;;;;;;1.33;0.90;;;;;;;;;;5031456;28;20050;-65
2023/09/02 10:55:32;;;;;;;1.38;0.98;;;;;;;;;;5033531;28;20041;-66
2023/09/02 10:58:00;;;;;;;1.75;1.10;;;;;;;;;;5032649;28;20277;-66
2023/09/02 11:00:29;;;;;;;1.10;1.00;;;;;;;;;;5033121;28;20045;-66
2023/09/02 11:02:57;;;;;;;2.47;0.90;;;;;;;;;;5033361;28;20099;-66
2023/09/02 11:05:25;;;;;;;1.52;0.80;;;;;;;;;;5033424;28;20434;-66
2023/09/02 11:07:52;;;;;;;2.42;1.13;;;;;;;;;;5033167;28;20505;-66
2023/09/02 11:10:20;;;;;;;1.23;0.90;;;;;;;;;;5032500;28;20045;-66
2023/09/02 11:13:06;;;;;;;2.08;1.00;;;;;;;;;;5032914;28;20045;-66
2023/09/02 11:15:36;;;;;;;2.75;1.00;;;;;;;;;;5033004;28;20290;-66
2023/09/02 11:18:28;;;;;;;1.67;0.80;;;;;;;;;;5032892;28;20041;-66
2023/09/02 11:20:55;;;;;;;1.77;0.77;;;;;;;;;;5032051;28;20099;-66
2023/09/02 11:23:22;;;;;;;0.70;0.70;;;;;;;;;;5033018;28;20586;-66
2023/09/02 11:26:01;;;;;;;0.70;0.70;;;;;;;;;;5032983;28;20487;-66
2023/09/02 11:28:28;;;;;;;0.90;0.77;;;;;;;;;;5032537;28;20057;-66
2023/09/02 11:31:09;;;;;;;1.55;0.85;;;;;;;;;;5032023;28;20071;-66
2023/09/02 11:33:37;;;;;;;1.33;1.00;;;;;;;;;;5032289;28;20081;-66
2023/09/02 11:36:05;;;;;;;0.85;0.80;;;;;;;;;;5032959;28;20419;-66
2023/09/02 11:38:32;;;;;;;1.88;1.13;;;;;;;;;;5032489;28;20049;-66
2023/09/02 11:40:59;;;;;;;1.08;0.77;;;;;;;;;;5032450;28;20048;-67
2023/09/02 11:43:29;;;;;;;0.95;0.70;;;;;;;;;;5032477;28;20081;-67
2023/09/02 11:45:56;;;;;;;1.40;0.80;;;;;;;;;;5032632;28;20446;-68
2023/09/02 11:48:26;;;;;;;1.40;0.90;;;;;;;;;;5032369;28;20144;-67
2023/09/02 11:50:53;;;;;;;0.98;0.88;;;;;;;;;;5032050;28;20499;-67
2023/09/02 11:53:20;;;;;;;1.35;0.70;;;;;;;;;;5032246;28;20045;-67
2023/09/02 11:55:47;;;;;;;1.85;0.85;;;;;;;;;;5032320;28;20041;-67
2023/09/02 11:58:17;;;;;;;0.70;0.70;;;;;;;;;;5033265;28;20136;-67
2023/09/02 12:00:44;;;;;;;0.90;0.77;;;;;;;;;;5031751;28;20060;-67
2023/09/02 12:03:11;;;;;;;1.38;0.80;;;;;;;;;;5032541;28;20132;-67
2023/09/02 12:05:47;;;;;;;1.00;0.73;;;;;;;;;;5030916;28;20049;-67
2023/09/02 12:08:14;;;;;;;1.20;0.90;;;;;;;;;;5032301;28;20046;-67
2023/09/02 12:10:41;;;;;;;2.15;0.90;;;;;;;;;;5031029;28;20133;-67
2023/09/02 12:13:09;;;;;;;2.42;0.98;;;;;;;;;;5032048;28;20049;-67
2023/09/02 12:15:36;;;;;;;1.23;0.85;;;;;;;;;;5031848;28;20045;-67
2023/09/02 12:18:03;;;;;;;1.13;0.90;;;;;;;;;;5032207;28;20482;-67
2023/09/02 12:20:30;;;;;;;1.75;0.70;;;;;;;;;;5031435;28;20067;-67
2023/09/02 12:22:58;;;;;;;1.20;0.70;;;;;;;;;;5031871;28;20053;-67
2023/09/02 12:25:25;;;;;;;2.95;1.15;;;;;;;;;;5031322;28;20060;-67
2023/09/02 12:27:53;;;;;;;0.93;0.77;;;;;;;;;;5031756;28;20049;-67
2023/09/02 12:30:27;;;;;;;1.27;0.88;;;;;;;;;;5030652;28;20052;-67
2023/09/02 12:32:56;;;;;;;0.95;0.80;;;;;;;;;;5032042;28;20046;-67
2023/09/02 12:35:23;;;;;;;1.60;0.73;;;;;;;;;;5031377;28;20422;-67
2023/09/02 12:38:02;;;;;;;0.80;0.80;;;;;;;;;;5031464;28;20052;-67
2023/09/02 12:40:29;;;;;;;1.13;0.80;;;;;;;;;;5030781;28;20475;-67
2023/09/02 12:42:56;;;;;;;1.52;0.80;;;;;;;;;;5031817;28;20418;-67
2023/09/02 12:45:28;;;;;;;2.50;0.90;;;;;;;;;;5031260;28;20103;-68
2023/09/02 12:47:56;;;;;;;2.90;0.88;;;;;;;;;;5031457;28;20048;-67
2023/09/02 12:50:23;;;;;;;0.80;0.80;;;;;;;;;;5030650;28;20045;-67
2023/09/02 12:52:55;;;;;;;0.77;0.70;;;;;;;;;;5031669;28;20055;-67
2023/09/02 12:55:23;;;;;;;;;;;;;;;;;;5031884;28;20045;-67
2023/09/02 12:57:49;;;;;;;1.33;0.82;;;;;;;;;;5031345;28;20297;-67
2023/09/02 13:00:16;;;;;;;4.13;0.88;;;;;;;;;;5030734;28;20046;-67
2023/09/02 13:02:43;;;;;;;0.80;0.80;;;;;;;;;;5031126;28;20517;-67
2023/09/02 13:05:09;;;;;;;0.70;0.70;;;;;;;;;;5031210;28;20051;-67
2023/09/02 13:07:36;;;;;;;1.73;0.70;;;;;;;;;;5031055;28;20268;-67
2023/09/02 13:10:03;;;;;;;2.10;0.98;;;;;;;;;;5030455;28;20049;-67
2023/09/02 13:12:33;;;;;;;0.93;0.70;;;;;;;;;;5031176;28;20061;-68
2023/09/02 13:15:00;;;;;;;1.02;0.70;;;;;;;;;;5031288;28;20487;-68
2023/09/02 13:17:26;;;;;;;1.55;0.80;;;;;;;;;;5030163;28;20499;-68
2023/09/02 13:19:53;;;;;;;0.70;0.60;;;;;;;;;;5030181;28;20056;-68
2023/09/02 13:22:20;;;;;;;0.70;0.70;;;;;;;;;;5030848;28;20045;-66
2023/09/02 13:24:47;;;;;;;1.77;0.90;;;;;;;;;;5031128;28;20045;-66
2023/09/02 13:27:15;;;;;;;1.40;0.80;;;;;;;;;;5030419;28;20642;-65
2023/09/02 13:29:43;;;;;;;0.70;0.70;;;;;;;;;;5029681;28;20052;-66
2023/09/02 13:32:15;;;;;;;0.95;0.60;;;;;;;;;;5029877;28;20152;-66
2023/09/02 13:34:42;;;;;;;1.83;0.70;;;;;;;;;;5030849;28;20051;-66
2023/09/02 13:37:21;;;;;;;1.40;0.70;;;;;;;;;;5030512;28;20051;-66
2023/09/02 13:39:53;;;;;;;0.80;0.60;;;;;;;;;;5029691;28;20487;-66
2023/09/02 13:42:20;;;;;;;1.02;0.70;;;;;;;;;;5030677;28;20497;-66
2023/09/02 13:44:49;;;;;;;0.55;0.55;;;;;;;;;;5029985;28;20045;-65
2023/09/02 13:47:18;;;;;;;0.70;0.57;;;;;;;;;;5030294;28;20056;-66
2023/09/02 13:49:53;;;;;;;1.08;0.80;;;;;;;;;;5029282;28;20045;-66
2023/09/02 13:52:23;;;;;;;0.52;0.52;;;;;;;;;;5030492;28;20367;-66
2023/09/02 13:54:50;;;;;;;0.77;0.60;;;;;;;;;;5030048;28;20056;-66
2023/09/02 13:57:17;;;;;;;0.85;0.63;;;;;;;;;;5029940;28;20057;-66
2023/09/02 13:59:43;;;;;;;1.00;0.77;;;;;;;;;;5028858;28;20045;-66
2023/09/02 14:02:15;;;;;;;0.60;0.60;;;;;;;;;;5030546;28;20411;-66
2023/09/02 14:04:46;;;;;;;0.65;0.50;;;;;;;;;;5030061;28;20071;-66
2023/09/02 14:07:13;;;;;;;1.92;0.77;;;;;;;;;;5030151;28;20048;-66
2023/09/02 14:09:43;;;;;;;0.88;0.50;;;;;;;;;;5028647;28;20050;-66
2023/09/02 14:12:11;;;;;;;0.70;0.60;;;;;;;;;;5030647;28;20475;-66
2023/09/02 14:14:38;;;;;;;1.17;0.60;;;;;;;;;;5029782;28;20049;-66
2023/09/02 14:17:05;;;;;;;1.05;0.60;;;;;;;;;;5030094;28;20529;-66
2023/09/02 14:19:33;;;;;;;0.90;0.60;;;;;;;;;;5028760;28;20091;-66
2023/09/02 14:21:59;;;;;;;1.40;0.70;;;;;;;;;;5030077;28;20125;-66
2023/09/02 14:24:26;;;;;;;0.68;0.68;;;;;;;;;;5029671;28;20491;-66
2023/09/02 14:27:08;;;;;;;0.80;0.65;;;;;;;;;;5029515;28;20056;-66
2023/09/02 14:29:34;;;;;;;0.90;0.80;;;;;;;;;;5028792;28;20057;-66
2023/09/02 14:32:01;;;;;;;1.23;0.80;;;;;;;;;;5030342;28;20045;-66
2023/09/02 14:34:28;;;;;;;0.60;0.60;;;;;;;;;;5029572;28;20046;-66
2023/09/02 14:36:56;;;;;;;0.95;0.60;;;;;;;;;;5029408;28;20136;-66
2023/09/02 14:39:23;;;;;;;0.80;0.80;;;;;;;;;;5029713;28;20049;-66
2023/09/02 14:41:49;;;;;;;0.90;0.70;;;;;;;;;;5028602;28;20550;-66
2023/09/02 14:44:17;;;;;;;1.15;0.60;;;;;;;;;;5029562;28;20068;-66
2023/09/02 14:46:45;;;;;;;1.67;0.70;;;;;;;;;;5029285;28;20057;-66
2023/09/02 14:49:13;;;;;;;4.03;0.75;;;;;;;;;;5029323;28;20041;-66
2023/09/02 14:51:39;;;;;;;1.27;0.68;;;;;;;;;;5028364;28;20132;-67